createdAt,value
2022-10-29T00:03:29.292Z,17.4
2022-10-29T00:09:39.940Z,17.5
2022-10-29T00:15:50.644Z,17.6
2022-10-29T00:22:01.296Z,17.7
2022-10-29T00:28:12.180Z,17.6
2022-10-29T00:34:22.665Z,17.5
2022-10-29T00:41:39.240Z,17.2
2022-10-29T00:47:49.892Z,17.4
2022-10-29T00:54:00.572Z,16.9
2022-10-29T01:00:11.222Z,17.3
2022-10-29T01:06:22.062Z,17.4
2022-10-29T01:11:34.889Z,17.1
2022-10-29T01:18:59.696Z,16.9
2022-10-29T01:25:10.279Z,16.8
2022-10-29T01:31:21.008Z,17.2
2022-10-29T01:38:53.927Z,16.5
2022-10-29T01:46:18.761Z,16.3
2022-10-29T01:54:41.309Z,16.5
2022-10-29T02:00:52.182Z,16.4
2022-10-29T02:05:56.694Z,16.3
2022-10-29T02:12:07.386Z,16.1
2022-10-29T02:18:18.108Z,16
2022-10-29T02:24:28.705Z,15.9
2022-10-29T02:30:39.470Z,16
2022-10-29T02:36:50.028Z,15.9
2022-10-29T02:43:00.710Z,15.9
2022-10-29T02:49:11.359Z,15.8
2022-10-29T02:55:13.856Z,15.8
2022-10-29T03:01:24.621Z,15.7
2022-10-29T03:07:35.226Z,15.7
2022-10-29T03:13:45.835Z,15.6
2022-10-29T03:19:56.485Z,15.6
2022-10-29T03:26:07.195Z,15.8
2022-10-29T03:32:17.845Z,15.7
2022-10-29T03:37:30.764Z,15.7
2022-10-29T03:43:41.515Z,15.7
2022-10-29T03:49:52.083Z,15.7
2022-10-29T03:57:08.704Z,15.9
2022-10-29T04:04:33.552Z,15.7
2022-10-29T04:10:52.337Z,15.8
2022-10-29T04:17:03.051Z,15.8
2022-10-29T04:27:07.900Z,15.7
2022-10-29T04:29:24.341Z,15.7
2022-10-29T04:35:35.044Z,15.7
2022-10-29T04:41:45.715Z,15.8
2022-10-29T04:47:56.798Z,15.9
2022-10-29T04:55:12.955Z,15.9
2022-10-29T05:01:23.825Z,15.5
2022-10-29T05:07:34.293Z,15.4
2022-10-29T05:13:45.004Z,15.4
2022-10-29T05:19:55.840Z,15.5
2022-10-29T05:26:06.291Z,15.3
2022-10-29T05:32:16.948Z,15.5
2022-10-29T05:38:27.674Z,15.4
2022-10-29T05:44:38.293Z,15.4
2022-10-29T05:52:03.059Z,15.3
2022-10-29T05:59:19.727Z,15.3
2022-10-29T06:05:30.345Z,15.5
2022-10-29T06:11:07.934Z,15.5
2022-10-29T06:17:34.912Z,15.7
2022-10-29T06:24:59.691Z,15.6
2022-10-29T06:32:24.507Z,15.5
2022-10-29T06:39:49.314Z,15.7
2022-10-29T06:45:02.212Z,15.8
2022-10-29T06:50:06.949Z,15.8
2022-10-29T06:56:17.665Z,15.7
2022-10-29T07:03:34.211Z,15.9
2022-10-29T07:08:39.023Z,15.9
2022-10-29T07:15:06.015Z,16
2022-10-29T07:21:24.879Z,16.1
2022-10-29T07:28:49.685Z,16.2
2022-10-29T07:36:14.482Z,16.5
2022-10-29T07:42:25.210Z,16.4
2022-10-29T07:47:29.837Z,16.7
2022-10-29T07:53:40.526Z,16.6
2022-10-29T07:59:42.981Z,16.8
2022-10-29T08:05:56.758Z,16.8
2022-10-29T08:12:04.353Z,16.5
2022-10-29T08:18:15.002Z,16.6
2022-10-29T08:24:25.649Z,16.6
2022-10-29T08:30:36.345Z,16.7
2022-10-29T08:36:47.142Z,16.7
2022-10-29T08:41:59.925Z,17
2022-10-29T08:48:10.582Z,17.2
2022-10-29T08:53:24.023Z,17.2
2022-10-29T08:59:17.787Z,17.2
2022-10-29T09:05:28.575Z,17.6
2022-10-29T09:11:39.089Z,18
2022-10-29T09:17:49.785Z,17.9
2022-10-29T09:24:00.456Z,18.5
2022-10-29T09:30:11.126Z,18.7
2022-10-29T09:36:21.777Z,18.7
2022-10-29T09:42:32.491Z,18.5
2022-10-29T09:48:43.096Z,18.9
2022-10-29T09:54:53.788Z,19
2022-10-29T10:00:56.282Z,19.3
2022-10-29T10:07:06.925Z,19.1
2022-10-29T10:13:18.935Z,19.4
2022-10-29T10:19:28.274Z,19.4
2022-10-29T10:25:39.079Z,19.8
2022-10-29T10:31:49.573Z,19.6
2022-10-29T10:38:00.591Z,20
2022-10-29T10:44:11.164Z,19.9
2022-10-29T10:50:21.601Z,20.2
2022-10-29T10:56:32.251Z,20.2
2022-10-29T11:02:34.886Z,20.4
2022-10-29T11:07:47.633Z,20.7
2022-10-29T11:13:58.350Z,20.5
2022-10-29T11:20:08.985Z,20.3
2022-10-29T11:26:19.637Z,20.4
2022-10-29T11:32:30.348Z,20.5
2022-10-29T11:38:40.976Z,20.5
2022-10-29T11:44:51.641Z,20.4
2022-10-29T11:51:02.334Z,20.8
2022-10-29T11:57:12.987Z,20.5
2022-10-29T12:03:15.514Z,20.6
2022-10-29T12:09:26.173Z,21
2022-10-29T12:15:36.805Z,21.1
2022-10-29T12:21:47.485Z,20.7
2022-10-29T12:27:58.158Z,20.9
2022-10-29T12:34:08.811Z,20.7
2022-10-29T12:40:19.444Z,20.8
2022-10-29T12:46:30.162Z,20.8
2022-10-29T12:52:40.773Z,21.1
2022-10-29T12:59:57.408Z,20.8
2022-10-29T13:06:08.090Z,20.6
2022-10-29T13:12:18.742Z,20.8
2022-10-29T13:18:29.405Z,21
2022-10-29T13:24:40.112Z,20.9
2022-10-29T13:30:50.724Z,21
2022-10-29T13:37:01.551Z,20.8
2022-10-29T13:42:14.334Z,20.8
2022-10-29T13:48:24.992Z,20.7
2022-10-29T13:54:35.652Z,20.6
2022-10-29T14:00:46.363Z,20.8
2022-10-29T14:06:48.786Z,20.8
2022-10-29T14:12:59.893Z,20.7
2022-10-29T14:19:10.179Z,20.6
2022-10-29T14:25:20.830Z,20.5
2022-10-29T14:31:31.467Z,20.5
2022-10-29T14:37:42.180Z,20.4
2022-10-29T14:43:52.840Z,20.3
2022-10-29T14:50:03.452Z,20.2
2022-10-29T14:56:14.168Z,20.1
2022-10-29T15:02:37.169Z,20.1
2022-10-29T15:08:27.306Z,20.3
2022-10-29T15:14:37.965Z,20.5
2022-10-29T15:20:48.608Z,20.3
2022-10-29T15:26:59.282Z,20
2022-10-29T15:33:09.968Z,20
2022-10-29T15:39:20.604Z,19.8
2022-10-29T15:45:31.256Z,19.4
2022-10-29T15:51:42.012Z,19.8
2022-10-29T15:57:52.599Z,19.8
2022-10-29T16:03:55.089Z,19.8
2022-10-29T16:09:08.056Z,19.7
2022-10-29T16:15:18.759Z,19.7
2022-10-29T16:21:29.337Z,19.6
2022-10-29T16:27:40.032Z,19.7
2022-10-29T16:33:50.653Z,19.4
2022-10-29T16:40:01.321Z,19.3
2022-10-29T16:46:12.050Z,19.3
2022-10-29T16:52:25.240Z,19.3
2022-10-29T16:58:33.358Z,19.3
2022-10-29T17:04:35.935Z,19
2022-10-29T17:09:40.525Z,19.1
2022-10-29T17:15:51.202Z,18.8
2022-10-29T17:22:01.892Z,18.7
2022-10-29T17:28:12.543Z,18.5
2022-10-29T17:34:23.208Z,18.2
2022-10-29T17:40:33.914Z,18.1
2022-10-29T17:46:44.547Z,18.1
2022-10-29T17:52:55.211Z,18.2
2022-10-29T17:59:05.897Z,18.1
2022-10-29T18:05:08.347Z,18
2022-10-29T18:11:19.004Z,18.1
2022-10-29T18:17:29.730Z,17.9
2022-10-29T18:23:40.328Z,17.7
2022-10-29T18:29:50.988Z,17.6
2022-10-29T18:36:01.888Z,17.6
2022-10-29T18:41:14.608Z,17.5
2022-10-29T18:47:25.297Z,17.6
2022-10-29T18:53:35.953Z,17.5
2022-10-29T18:59:46.581Z,17.5
2022-10-29T19:05:49.091Z,17.6
2022-10-29T19:11:59.842Z,17.5
2022-10-29T19:18:10.418Z,17.4
2022-10-29T19:24:21.073Z,17.5
2022-10-29T19:30:31.751Z,17.3
2022-10-29T19:36:42.751Z,17.3
2022-10-29T19:42:53.071Z,17.3
2022-10-29T19:49:03.785Z,17.4
2022-10-29T19:55:14.403Z,17.4
2022-10-29T20:01:25.249Z,17.3
2022-10-29T20:07:27.593Z,17.3
2022-10-29T20:13:38.197Z,17.4
2022-10-29T20:19:48.897Z,17.4
2022-10-29T20:25:59.577Z,17.5
2022-10-29T20:33:24.337Z,17.4
2022-10-29T20:39:35.026Z,17.4
2022-10-29T20:45:45.714Z,17.4
2022-10-29T20:51:56.363Z,17.6
2022-10-29T20:58:07.016Z,17.7
2022-10-29T21:04:09.512Z,17.7
2022-10-29T21:09:22.396Z,17.8
2022-10-29T21:15:33.184Z,17.9
2022-10-29T21:20:37.830Z,17.9
2022-10-29T21:26:48.479Z,17.9
2022-10-29T21:32:59.118Z,17.9
2022-10-29T21:39:09.849Z,17.8
2022-10-29T21:45:20.474Z,17.6
2022-10-29T21:51:31.116Z,17.7
2022-10-29T21:57:41.856Z,17.8
2022-10-29T22:04:58.405Z,17.7
2022-10-29T22:11:09.095Z,17.6
2022-10-29T22:17:19.787Z,17.5
2022-10-29T22:23:30.402Z,17.4
2022-10-29T22:29:41.070Z,17.5
2022-10-29T22:35:51.775Z,17.9
2022-10-29T22:42:02.414Z,17.5
2022-10-29T22:48:13.067Z,17.7
2022-10-29T22:54:23.763Z,17.6
2022-10-29T23:00:34.408Z,17.7
2022-10-29T23:09:05.168Z,17.5
2022-10-29T23:15:15.853Z,17.6
2022-10-29T23:21:26.485Z,17.7
2022-10-29T23:27:37.159Z,17.5
2022-10-29T23:33:47.856Z,17.4
2022-10-29T23:39:00.737Z,17.6
2022-10-29T23:45:11.391Z,17.5
2022-10-29T23:52:36.241Z,17.5
2022-10-29T23:58:46.893Z,17.7
